Time;durP1;ratioP1;P1;durP2;ratioP2;P2;SDS_P1;SDS_P2;PMS_P1;PMS_P2;Temp;Humidity;BMP_temperature;BMP_pressure;BME280_temperature;BME280_humidity;BME280_pressure;Samples;Min_cycle;Max_cycle;Signal;HPM_P1;HPM_P2
2022/06/13 00:01:27;;;;;;;15.70;7.60;;;11.20;99.90;;;;;;4973848;28;20026;-66
2022/06/13 00:03:54;;;;;;;16.55;8.93;;;11.30;99.90;;;;;;4972169;28;20026;-72
2022/06/13 00:06:21;;;;;;;18.05;9.07;;;11.40;99.90;;;;;;4972052;28;20027;-63
2022/06/13 00:08:49;;;;;;;15.35;8.23;;;11.60;99.90;;;;;;4975665;28;20034;-74
2022/06/13 00:11:19;;;;;;;12.13;7.85;;;11.80;99.90;;;;;;4974672;28;20030;-67
2022/06/13 00:13:49;;;;;;;14.55;6.53;;;12.00;99.90;;;;;;4971760;28;20042;-66
2022/06/13 00:16:17;;;;;;;13.10;7.40;;;12.10;99.90;;;;;;4973630;28;20081;-67
2022/06/13 00:18:47;;;;;;;8.80;5.05;;;12.30;99.90;;;;;;4967794;28;20033;-68
2022/06/13 00:21:32;;;;;;;13.65;5.68;;;12.30;99.90;;;;;;4973223;28;20026;-71
2022/06/13 00:24:01;;;;;;;10.48;4.97;;;12.50;99.90;;;;;;4973348;28;20026;-69
2022/06/13 00:26:32;;;;;;;12.18;4.50;;;12.80;99.90;;;;;;4973264;28;20035;-65
2022/06/13 00:29:00;;;;;;;8.82;4.80;;;12.90;99.90;;;;;;4972099;28;20030;-64
2022/06/13 00:31:27;;;;;;;10.70;4.57;;;13.00;99.90;;;;;;4957192;28;20034;-64
2022/06/13 00:33:54;;;;;;;7.60;3.78;;;13.10;99.90;;;;;;4970301;28;20022;-65
2022/06/13 00:36:23;;;;;;;4.88;2.95;;;13.20;99.90;;;;;;4973337;28;20034;-65
2022/06/13 00:38:55;;;;;;;2.80;1.55;;;13.40;99.90;;;;;;4974338;28;20022;-64
2022/06/13 00:41:27;;;;;;;6.77;1.87;;;13.80;99.90;;;;;;4975194;28;20025;-68
2022/06/13 00:43:55;;;;;;;2.58;1.48;;;13.90;99.90;;;;;;4973110;28;20352;-68
2022/06/13 00:46:24;;;;;;;5.25;2.20;;;14.00;99.90;;;;;;4973978;28;20034;-68
2022/06/13 00:49:14;;;;;;;3.15;2.20;;;14.10;99.90;;;;;;4956234;28;20542;-65
2022/06/13 00:51:47;;;;;;;2.50;1.98;;;14.30;99.90;;;;;;4975178;28;20558;-64
2022/06/13 00:54:16;;;;;;;3.53;1.73;;;14.40;99.90;;;;;;4974593;28;20467;-67
2022/06/13 00:56:43;;;;;;;2.15;0.88;;;14.50;99.90;;;;;;4976151;28;20037;-68
2022/06/13 00:59:15;;;;;;;1.00;0.82;;;14.80;99.90;;;;;;4971446;28;20065;-69
2022/06/13 01:01:42;;;;;;;1.10;0.77;;;14.80;99.90;;;;;;4962476;28;20023;-71
2022/06/13 01:04:10;;;;;;;2.00;1.08;;;14.70;99.40;;;;;;4962346;28;20537;-69
2022/06/13 01:06:42;;;;;;;7.63;1.80;;;14.60;99.90;;;;;;4960166;28;20031;-64
2022/06/13 01:09:12;;;;;;;5.32;1.27;;;14.60;99.90;;;;;;4962361;28;20113;-68
2022/06/13 01:11:53;;;;;;;1.73;1.20;;;14.70;99.90;;;;;;4959294;28;20039;-65
2022/06/13 01:14:44;;;;;;;1.13;0.68;;;14.70;99.80;;;;;;4954605;28;20023;-70
2022/06/13 01:17:36;;;;;;;1.65;0.73;;;15.00;99.30;;;;;;4957338;28;20027;-68
2022/06/13 01:20:45;;;;;;;2.30;1.02;;;15.20;98.10;;;;;;4954890;28;20059;-68
2022/06/13 01:23:43;;;;;;;2.90;0.77;;;15.40;98.40;;;;;;4957235;28;20031;-67
2022/06/13 01:26:22;;;;;;;2.10;0.70;;;15.50;97.10;;;;;;4967250;28;20107;-65
2022/06/13 01:29:05;;;;;;;1.15;1.00;;;15.60;97.40;;;;;;4962144;28;20039;-65
2022/06/13 01:31:44;;;;;;;1.67;0.98;;;15.80;96.80;;;;;;4936134;29;20043;-67
2022/06/13 01:34:40;;;;;;;2.38;1.30;;;15.80;96.60;;;;;;4921199;29;20118;-66
2022/06/13 01:37:37;;;;;;;2.20;1.20;;;15.80;97.30;;;;;;4929580;28;20146;-64
2022/06/13 01:40:10;;;;;;;0.80;0.80;;;16.00;96.20;;;;;;4946600;28;20179;-69
2022/06/13 01:42:46;;;;;;;3.40;1.20;;;16.00;96.60;;;;;;4951489;29;20506;-69
2022/06/13 01:45:31;;;;;;;1.08;0.73;;;16.10;97.10;;;;;;4943118;29;20114;-65
2022/06/13 01:48:10;;;;;;;2.60;1.10;;;16.20;97.30;;;;;;4946873;28;20035;-69
2022/06/13 01:50:55;;;;;;;1.70;0.80;;;16.50;96.30;;;;;;4946363;29;20043;-67
2022/06/13 01:53:35;;;;;;;0.88;0.75;;;16.70;94.50;;;;;;4945457;28;20039;-67
2022/06/13 01:56:06;;;;;;;0.95;0.75;;;16.50;94.70;;;;;;4939854;28;20031;-65
2022/06/13 01:58:45;;;;;;;1.83;0.80;;;16.60;94.40;;;;;;4943664;29;20023;-65
2022/06/13 02:01:25;;;;;;;0.90;0.60;;;16.70;94.10;;;;;;4943062;29;21466;-67
2022/06/13 02:04:05;;;;;;;2.08;0.98;;;16.50;93.80;;;;;;4937899;29;20042;-66
2022/06/13 02:06:37;;;;;;;2.10;0.60;;;16.50;94.00;;;;;;4940601;28;20038;-64
2022/06/13 02:09:10;;;;;;;2.10;0.70;;;16.70;94.10;;;;;;4944200;29;20031;-66
2022/06/13 02:11:56;;;;;;;1.15;0.68;;;16.80;93.40;;;;;;4940556;29;20035;-66
2022/06/13 02:14:39;;;;;;;1.63;0.47;;;16.80;93.40;;;;;;4947023;29;20036;-64
2022/06/13 02:17:17;;;;;;;1.70;0.60;;;16.90;93.10;;;;;;4941240;28;20034;-68
2022/06/13 02:20:08;;;;;;;0.60;0.60;;;16.90;93.40;;;;;;4937183;29;20028;-64
2022/06/13 02:23:02;;;;;;;1.40;0.80;;;16.80;92.70;;;;;;4939516;28;20031;-67
2022/06/13 02:25:45;;;;;;;1.33;0.77;;;16.80;93.00;;;;;;4936740;28;20086;-68
2022/06/13 02:28:17;;;;;;;;;;;16.70;92.50;;;;;;4941626;29;20030;-64
2022/06/13 02:31:10;;;;;;;6.70;4.43;;;16.80;93.30;;;;;;4953688;28;19918;-66
2022/06/13 02:33:43;;;;;;;;;;;16.90;93.00;;;;;;4950671;28;20047;-64
2022/06/13 02:36:17;;;;;;;2.65;1.52;;;17.20;92.00;;;;;;4966280;28;19918;-66
2022/06/13 02:39:05;;;;;;;4.63;2.35;;;17.30;91.90;;;;;;4957049;28;20023;-66
2022/06/13 02:41:40;;;;;;;0.82;0.60;;;17.30;92.20;;;;;;4953312;28;20488;-66
2022/06/13 02:44:19;;;;;;;1.98;1.20;;;17.50;91.10;;;;;;4956818;28;20027;-71
2022/06/13 02:46:54;;;;;;;1.38;0.70;;;17.60;91.10;;;;;;4959929;28;20038;-67
2022/06/13 02:49:24;;;;;;;1.52;0.65;;;17.80;91.00;;;;;;4958554;28;20242;-67
2022/06/13 02:52:29;;;;;;;1.58;0.73;;;17.70;90.60;;;;;;4957301;28;20096;-68
2022/06/13 02:55:04;;;;;;;1.48;0.68;;;17.80;91.30;;;;;;4958992;28;20054;-66
2022/06/13 02:57:35;;;;;;;1.10;0.80;;;17.80;90.80;;;;;;4956902;28;20035;-64
2022/06/13 03:00:14;;;;;;;1.02;0.73;;;17.80;90.30;;;;;;4955046;28;20039;-63
2022/06/13 03:03:05;;;;;;;2.17;0.68;;;18.00;90.00;;;;;;4956345;28;20058;-65
2022/06/13 03:05:44;;;;;;;0.60;0.60;;;17.80;90.00;;;;;;4959204;28;20026;-63
2022/06/13 03:08:23;;;;;;;2.25;0.75;;;17.80;89.00;;;;;;4958235;28;20130;-62
2022/06/13 03:11:05;;;;;;;1.73;0.80;;;17.50;89.00;;;;;;4956637;28;20495;-60
2022/06/13 03:13:35;;;;;;;0.90;0.68;;;17.60;88.30;;;;;;4956945;28;20106;-65
2022/06/13 03:16:11;;;;;;;3.45;0.90;;;17.60;88.50;;;;;;4937480;29;20082;-67
2022/06/13 03:18:48;;;;;;;1.02;0.50;;;17.70;90.50;;;;;;4959100;28;20077;-66
2022/06/13 03:21:37;;;;;;;0.93;0.55;;;17.90;90.10;;;;;;4961168;28;20122;-67
2022/06/13 03:24:36;;;;;;;2.42;0.93;;;18.10;91.50;;;;;;4954782;28;20027;-67
2022/06/13 03:27:15;;;;;;;0.80;0.60;;;18.30;90.70;;;;;;4878823;29;20035;-63
2022/06/13 03:29:48;;;;;;;1.52;0.90;;;18.30;89.10;;;;;;4871060;29;20057;-63
2022/06/13 03:32:25;;;;;;;3.92;1.70;;;18.50;91.20;;;;;;4860035;29;20065;-63
2022/06/13 03:34:59;;;;;;;3.42;2.72;;;18.50;90.60;;;;;;4865953;29;20192;-63
2022/06/13 03:37:40;;;;;;;1.30;1.08;;;18.50;90.50;;;;;;4863004;29;20053;-63
2022/06/13 03:40:17;;;;;;;1.08;0.70;;;18.60;90.20;;;;;;4863129;29;20041;-64
2022/06/13 03:42:53;;;;;;;1.70;0.82;;;18.70;87.80;;;;;;4858142;29;20055;-65
2022/06/13 03:45:30;;;;;;;0.93;0.73;;;18.90;90.00;;;;;;4868731;29;20041;-65
2022/06/13 03:48:12;;;;;;;2.28;0.75;;;19.00;84.80;;;;;;4862431;29;20041;-63
2022/06/13 03:50:43;;;;;;;5.82;1.20;;;18.80;85.60;;;;;;4862141;29;20093;-64
2022/06/13 03:53:33;;;;;;;3.92;1.70;;;18.60;85.30;;;;;;4863435;29;20093;-65
2022/06/13 03:56:20;;;;;;;1.52;0.70;;;18.50;86.80;;;;;;4860951;29;20038;-64
2022/06/13 03:59:00;;;;;;;2.40;1.63;;;18.50;87.20;;;;;;4860791;29;20021;-63
2022/06/13 04:01:31;;;;;;;2.85;1.42;;;18.70;88.80;;;;;;4858993;29;20491;-64
2022/06/13 04:04:00;;;;;;;4.22;3.08;;;18.70;89.10;;;;;;4906342;29;20043;-60
2022/06/13 04:06:39;;;;;;;1.58;1.02;;;18.80;88.50;;;;;;4942152;29;20077;-61
2022/06/13 04:09:37;;;;;;;1.95;0.90;;;18.80;87.10;;;;;;4935183;29;20178;-62
2022/06/13 04:12:09;;;;;;;1.13;0.77;;;18.80;88.10;;;;;;4849422;29;20057;-61
2022/06/13 04:14:48;;;;;;;0.77;0.70;;;19.00;86.80;;;;;;4846525;29;20068;-64
2022/06/13 04:18:08;;;;;;;2.63;0.65;;;18.90;80.30;;;;;;4846828;29;20053;-63
2022/06/13 04:20:57;;;;;;;2.90;0.88;;;18.90;82.20;;;;;;4813421;29;20049;-62
2022/06/13 04:23:30;;;;;;;3.40;0.90;;;18.70;78.80;;;;;;4814993;29;20077;-61
2022/06/13 04:26:17;;;;;;;3.42;0.95;;;18.60;80.70;;;;;;4817729;29;20036;-63
2022/06/13 04:28:56;;;;;;;1.40;0.90;;;18.60;82.10;;;;;;4147545;29;10000834;-62
2022/06/13 04:31:27;;;;;;;1.27;0.77;;;18.70;86.20;;;;;;4833343;29;20045;-62
2022/06/13 04:34:02;;;;;;;2.55;0.90;;;18.80;83.00;;;;;;4830387;29;20041;-65
2022/06/13 04:36:31;;;;;;;0.75;0.65;;;18.90;82.10;;;;;;4830512;29;20133;-61
2022/06/13 04:39:01;;;;;;;1.50;0.60;;;19.00;83.40;;;;;;4833393;29;20034;-61
2022/06/13 04:41:31;;;;;;;2.67;1.10;;;19.00;81.70;;;;;;4829604;29;20045;-61
2022/06/13 04:44:01;;;;;;;2.30;0.80;;;18.90;85.00;;;;;;4835761;29;20121;-60
2022/06/13 04:46:30;;;;;;;4.50;3.60;;;18.70;81.90;;;;;;4831777;29;20056;-63
2022/06/13 04:49:02;;;;;;;1.77;1.05;;;18.60;83.10;;;;;;4870528;29;20156;-61
2022/06/13 04:51:37;;;;;;;0.83;0.77;;;18.50;83.40;;;;;;4884844;29;20115;-65
2022/06/13 04:54:06;;;;;;;1.38;0.70;;;18.60;81.30;;;;;;4910242;28;20039;-61
2022/06/13 04:56:34;;;;;;;0.90;0.60;;;18.70;82.00;;;;;;4950820;28;20027;-65
2022/06/13 04:59:03;;;;;;;2.63;0.82;;;18.80;82.70;;;;;;4950983;28;20019;-62
2022/06/13 05:01:34;;;;;;;1.27;0.73;;;18.90;81.00;;;;;;4956426;28;20143;-64
2022/06/13 05:04:04;;;;;;;1.45;0.80;;;19.10;80.90;;;;;;4954158;28;20376;-64
2022/06/13 05:06:43;;;;;;;0.93;0.70;;;19.40;79.60;;;;;;4959792;28;20045;-65
2022/06/13 05:09:10;;;;;;;1.75;1.00;;;19.60;80.50;;;;;;4956063;28;20565;-61
2022/06/13 05:11:55;;;;;;;2.08;1.00;;;19.90;81.20;;;;;;4951542;28;20070;-63
2022/06/13 05:14:30;;;;;;;4.72;3.00;;;20.10;82.30;;;;;;4957499;28;20031;-63
2022/06/13 05:17:21;;;;;;;6.90;3.92;;;20.30;81.00;;;;;;4954900;28;20414;-64
2022/06/13 05:20:26;;;;;;;4.18;2.10;;;20.20;78.80;;;;;;4962426;28;20110;-65
2022/06/13 05:23:02;;;;;;;3.33;1.20;;;20.00;81.10;;;;;;4952694;28;20575;-65
2022/06/13 05:25:43;;;;;;;2.03;1.27;;;20.20;78.40;;;;;;4958848;28;20114;-65
2022/06/13 05:28:18;;;;;;;9.13;5.30;;;20.40;81.10;;;;;;4951437;28;20053;-68
2022/06/13 05:30:50;;;;;;;4.45;2.97;;;20.40;77.60;;;;;;4978426;23;20050;-65
2022/06/13 05:33:20;;;;;;;5.30;2.38;;;20.40;81.30;;;;;;4972753;28;20049;-65
2022/06/13 05:35:52;;;;;;;2.45;1.73;;;20.20;79.00;;;;;;4980888;28;20015;-64
2022/06/13 05:38:42;;;;;;;2.00;0.97;;;20.30;79.40;;;;;;4977858;28;20033;-64
2022/06/13 05:41:09;;;;;;;3.20;1.60;;;20.40;76.20;;;;;;4975288;28;20034;-63
2022/06/13 05:43:37;;;;;;;2.90;1.45;;;20.20;76.10;;;;;;4973462;28;20026;-65
2022/06/13 05:46:06;;;;;;;2.58;1.63;;;20.10;77.70;;;;;;4957992;28;20027;-65
2022/06/13 05:48:34;;;;;;;3.33;1.35;;;19.80;78.10;;;;;;4971672;28;20019;-64
2022/06/13 05:51:02;;;;;;;6.88;3.75;;;19.00;80.20;;;;;;4979765;28;20109;-65
2022/06/13 05:53:29;;;;;;;5.68;3.22;;;18.30;82.10;;;;;;4984199;28;20058;-64
2022/06/13 05:56:02;;;;;;;3.10;1.50;;;17.80;83.80;;;;;;4976259;28;20039;-65
2022/06/13 05:58:29;;;;;;;5.13;2.10;;;17.20;85.60;;;;;;4974808;28;20135;-65
2022/06/13 06:00:58;;;;;;;2.60;1.40;;;17.00;88.10;;;;;;4969236;28;20022;-65
2022/06/13 06:03:26;;;;;;;3.38;1.55;;;16.60;83.90;;;;;;4963521;28;20492;-65
2022/06/13 06:05:55;;;;;;;2.67;1.17;;;16.50;87.20;;;;;;4967097;28;20027;-65
2022/06/13 06:08:25;;;;;;;3.03;1.55;;;16.30;86.70;;;;;;4966990;28;20026;-66
2022/06/13 06:10:54;;;;;;;3.22;1.27;;;16.20;88.70;;;;;;4963286;28;20026;-66
2022/06/13 06:13:22;;;;;;;1.95;1.08;;;16.10;88.00;;;;;;4966109;28;20531;-65
2022/06/13 06:15:50;;;;;;;5.80;2.42;;;16.00;87.10;;;;;;4964981;28;20030;-65
2022/06/13 06:18:19;;;;;;;2.95;1.60;;;15.70;85.80;;;;;;4967828;28;20059;-65
2022/06/13 06:20:46;;;;;;;3.72;1.70;;;15.70;90.10;;;;;;4964582;28;20167;-64
2022/06/13 06:23:14;;;;;;;1.42;0.93;;;15.50;90.30;;;;;;4967525;28;20022;-64
2022/06/13 06:25:42;;;;;;;2.33;1.30;;;15.30;90.70;;;;;;4966479;28;21213;-64
2022/06/13 06:28:15;;;;;;;3.92;1.13;;;15.30;91.20;;;;;;4968093;28;20031;-65
2022/06/13 06:30:41;;;;;;;;;;;15.20;90.50;;;;;;4979253;28;20082;-67
2022/06/13 06:33:08;;;;;;;2.38;1.00;;;15.00;90.90;;;;;;4983388;28;20001;-65
2022/06/13 06:35:35;;;;;;;2.30;0.90;;;14.80;90.50;;;;;;4984482;28;20038;-65
2022/06/13 06:38:04;;;;;;;1.98;0.85;;;14.60;91.00;;;;;;4983328;28;20031;-64
2022/06/13 06:40:31;;;;;;;2.13;1.13;;;14.30;91.50;;;;;;4985962;28;21632;-64
2022/06/13 06:42:58;;;;;;;1.55;0.98;;;14.10;91.60;;;;;;4983199;28;20031;-65
2022/06/13 06:45:26;;;;;;;3.33;1.15;;;14.00;92.00;;;;;;4984860;28;20018;-65
2022/06/13 06:47:55;;;;;;;3.20;1.27;;;13.70;92.60;;;;;;4985970;28;20101;-67
2022/06/13 06:50:28;;;;;;;1.63;1.27;;;13.50;94.00;;;;;;4983861;28;20026;-64
2022/06/13 06:52:55;;;;;;;2.33;1.50;;;13.50;94.80;;;;;;4966764;28;20034;-65
2022/06/13 07:01:02;;;;;;;3.25;1.80;;;13.20;96.30;;;;;;4981670;28;20081;-68
2022/06/13 07:03:30;;;;;;;2.67;1.95;;;13.00;96.70;;;;;;4981333;28;20034;-68
2022/06/13 07:05:57;;;;;;;4.13;1.90;;;12.90;97.40;;;;;;4980760;28;20030;-65
2022/06/13 07:08:25;;;;;;;6.22;2.42;;;12.70;98.50;;;;;;4982952;28;20656;-67
2022/06/13 07:10:52;;;;;;;6.18;2.38;;;12.50;99.10;;;;;;4982939;28;20061;-67
2022/06/13 07:13:20;;;;;;;5.50;2.78;;;12.30;99.90;;;;;;4978823;28;20947;-68
2022/06/13 07:15:48;;;;;;;4.53;2.50;;;12.10;99.90;;;;;;4982637;28;20450;-65
2022/06/13 07:18:15;;;;;;;6.32;2.80;;;12.00;99.90;;;;;;4981352;28;20037;-66
2022/06/13 07:20:43;;;;;;;3.95;2.78;;;11.80;99.90;;;;;;4983299;28;20034;-63
2022/06/13 07:23:11;;;;;;;4.72;2.65;;;11.80;99.90;;;;;;4980442;28;20037;-63
2022/06/13 07:25:38;;;;;;;4.22;2.60;;;11.70;99.90;;;;;;4980966;28;20113;-67
2022/06/13 07:28:05;;;;;;;4.80;3.20;;;11.50;99.90;;;;;;4979014;28;20034;-65
2022/06/13 07:30:33;;;;;;;3.22;2.20;;;11.40;99.90;;;;;;4981798;28;20049;-60
2022/06/13 07:33:00;;;;;;;4.88;3.08;;;11.20;99.90;;;;;;4980969;28;20088;-62
2022/06/13 07:35:28;;;;;;;12.80;8.73;;;11.20;99.90;;;;;;4983612;28;20839;-60
2022/06/13 07:40:41;;;;;;;16.67;9.88;;;11.00;99.90;;;;;;4967502;28;20058;-61
2022/06/13 07:43:22;;;;;;;12.07;7.55;;;10.90;99.90;;;;;;4981811;28;20021;-63
2022/06/13 07:45:51;;;;;;;9.75;6.13;;;10.80;99.90;;;;;;4982890;28;20030;-61
2022/06/13 07:48:18;;;;;;;8.55;6.05;;;10.80;99.90;;;;;;4981790;28;20041;-62
2022/06/13 07:50:47;;;;;;;13.38;7.88;;;10.90;99.90;;;;;;4982173;28;20026;-60
2022/06/13 07:53:14;;;;;;;13.50;6.10;;;10.80;99.90;;;;;;4979928;28;20034;-64
2022/06/13 07:55:41;;;;;;;11.15;5.90;;;10.80;99.90;;;;;;4981501;28;20513;-59
2022/06/13 07:58:21;;;;;;;8.55;5.75;;;10.80;99.90;;;;;;4981106;28;20208;-60
2022/06/13 08:00:49;;;;;;;9.80;5.38;;;10.80;99.90;;;;;;4980007;28;20080;-66
2022/06/13 08:03:24;;;;;;;15.57;6.60;;;10.70;99.90;;;;;;4980645;28;20035;-62
2022/06/13 08:05:52;;;;;;;11.18;6.40;;;10.70;99.90;;;;;;4981705;28;20049;-65
2022/06/13 08:08:20;;;;;;;11.13;6.05;;;10.70;99.90;;;;;;4981953;28;20497;-64
2022/06/13 08:10:48;;;;;;;15.38;7.47;;;10.60;99.90;;;;;;4982809;28;20034;-62
2022/06/13 08:13:18;;;;;;;12.88;7.53;;;10.70;99.90;;;;;;4980258;28;20789;-63
2022/06/13 08:15:45;;;;;;;17.05;8.60;;;10.60;99.90;;;;;;4980687;28;20038;-63
2022/06/13 08:18:13;;;;;;;9.30;5.28;;;10.50;99.90;;;;;;4981492;28;20073;-65
2022/06/13 08:20:42;;;;;;;14.07;11.10;;;10.40;99.90;;;;;;4981989;28;20037;-63
2022/06/13 08:23:12;;;;;;;14.45;9.57;;;10.40;99.90;;;;;;4633110;28;10000080;-62
2022/06/13 08:25:41;;;;;;;19.10;9.25;;;10.40;99.90;;;;;;4977464;28;20026;-61
2022/06/13 08:28:10;;;;;;;8.07;5.05;;;10.40;99.90;;;;;;4977925;28;20036;-63
2022/06/13 08:31:01;;;;;;;7.95;4.63;;;10.40;99.90;;;;;;4980036;28;20053;-63
2022/06/13 08:33:29;;;;;;;7.07;4.43;;;10.30;99.90;;;;;;4978649;28;20770;-71
2022/06/13 08:35:56;;;;;;;8.55;4.18;;;10.20;99.90;;;;;;4979671;28;20102;-65
2022/06/13 08:38:23;;;;;;;8.30;4.40;;;10.20;99.90;;;;;;4962120;28;20057;-63
2022/06/13 08:41:06;;;;;;;8.70;4.43;;;10.10;99.90;;;;;;4978717;28;20039;-66
2022/06/13 08:43:45;;;;;;;6.00;3.80;;;10.10;99.90;;;;;;4978049;28;20038;-60
2022/06/13 08:47:02;;;;;;;12.60;8.25;;;10.10;99.90;;;;;;4960157;28;20648;-67
2022/06/13 08:49:42;;;;;;;11.32;6.88;;;10.10;99.90;;;;;;4899464;29;20025;-61
2022/06/13 08:52:33;;;;;;;5.35;3.83;;;10.00;99.90;;;;;;4898041;29;20040;-65
2022/06/13 08:55:20;;;;;;;6.47;3.95;;;10.00;99.90;;;;;;4897726;29;20109;-67
2022/06/13 08:58:01;;;;;;;6.82;4.10;;;9.90;99.90;;;;;;4894912;29;20036;-59
2022/06/13 09:00:30;;;;;;;5.38;4.18;;;9.90;99.90;;;;;;4895846;29;20047;-60
2022/06/13 09:03:11;;;;;;;5.45;3.70;;;9.80;99.90;;;;;;4892572;29;20020;-61
2022/06/13 09:05:56;;;;;;;8.60;3.85;;;9.80;99.90;;;;;;4896495;29;20108;-65
2022/06/13 09:08:28;;;;;;;6.28;3.80;;;9.70;99.90;;;;;;4896657;29;20122;-61
2022/06/13 09:11:24;;;;;;;5.55;3.72;;;9.70;99.90;;;;;;4895323;29;20401;-60
2022/06/13 09:14:22;;;;;;;6.70;3.80;;;9.60;99.90;;;;;;4891040;29;20050;-60
2022/06/13 09:17:16;;;;;;;6.88;3.90;;;9.50;99.90;;;;;;4894864;29;20086;-60
2022/06/13 09:19:46;;;;;;;5.90;4.20;;;9.50;99.90;;;;;;4916943;28;20077;-61
2022/06/13 09:22:51;;;;;;;10.35;3.90;;;9.60;99.90;;;;;;4974815;28;20027;-59
2022/06/13 09:25:41;;;;;;;8.43;5.32;;;9.60;99.90;;;;;;4901302;29;20041;-60
2022/06/13 09:28:20;;;;;;;7.00;5.00;;;9.50;99.90;;;;;;4898833;29;20055;-61
2022/06/13 09:31:02;;;;;;;7.70;5.20;;;9.20;99.90;;;;;;4900372;29;20131;-64
2022/06/13 09:33:37;;;;;;;9.23;4.70;;;9.10;99.90;;;;;;4905151;29;20079;-60
2022/06/13 09:36:33;;;;;;;8.02;4.30;;;9.10;99.90;;;;;;4902719;29;20572;-62
2022/06/13 09:39:12;;;;;;;6.50;3.83;;;9.10;99.90;;;;;;4895259;29;20043;-61
2022/06/13 09:41:55;;;;;;;6.30;3.72;;;9.10;99.90;;;;;;4903471;29;20040;-61
2022/06/13 09:44:22;;;;;;;4.57;3.17;;;9.00;99.90;;;;;;4905075;29;20670;-63
2022/06/13 09:47:15;;;;;;;4.65;3.10;;;8.90;99.90;;;;;;4900092;29;20556;-62
2022/06/13 09:49:58;;;;;;;16.00;9.90;;;8.80;99.90;;;;;;4901700;29;20060;-61
2022/06/13 09:52:44;;;;;;;9.30;3.17;;;8.80;99.90;;;;;;4907147;29;20500;-63
2022/06/13 09:55:26;;;;;;;6.40;4.15;;;8.70;99.90;;;;;;4905642;29;20095;-60
2022/06/13 09:58:15;;;;;;;7.68;3.47;;;8.60;99.90;;;;;;4901478;29;20047;-62
2022/06/13 10:00:45;;;;;;;8.13;3.75;;;8.50;99.90;;;;;;4903372;29;20127;-60
2022/06/13 10:03:26;;;;;;;4.55;2.95;;;8.40;99.90;;;;;;4973066;28;20466;-67
2022/06/13 10:06:03;;;;;;;6.38;4.35;;;8.30;99.90;;;;;;4977168;28;20034;-60
2022/06/13 10:08:48;;;;;;;7.63;3.75;;;8.20;99.90;;;;;;4972874;28;20034;-62
2022/06/13 10:11:32;;;;;;;4.97;3.40;;;8.20;99.90;;;;;;4975824;28;20023;-62
2022/06/13 10:14:20;;;;;;;5.78;2.80;;;8.10;99.90;;;;;;4973326;28;20912;-69
2022/06/13 10:17:24;;;;;;;5.07;3.05;;;8.20;99.90;;;;;;4977961;28;20053;-62
2022/06/13 10:20:13;;;;;;;4.65;2.92;;;8.30;99.90;;;;;;4976351;28;20026;-64
2022/06/13 10:23:13;;;;;;;5.68;3.50;;;8.30;99.90;;;;;;4976526;28;20150;-67
2022/06/13 10:26:27;;;;;;;6.15;3.30;;;8.20;99.90;;;;;;4978405;28;20153;-63
2022/06/13 10:29:31;;;;;;;7.45;2.97;;;8.10;99.90;;;;;;4888967;29;20048;-63
2022/06/13 10:32:15;;;;;;;5.75;3.35;;;8.10;99.90;;;;;;4891664;29;20048;-62
2022/06/13 10:35:29;;;;;;;8.68;5.80;;;8.10;99.90;;;;;;4872494;29;20197;-62
2022/06/13 10:38:17;;;;;;;6.40;4.97;;;8.00;99.90;;;;;;4878570;29;20067;-60
2022/06/13 10:40:45;;;;;;;7.85;5.70;;;7.80;99.90;;;;;;4886467;29;20051;-63
2022/06/13 10:43:12;;;;;;;7.18;4.38;;;7.60;99.90;;;;;;4892198;29;20169;-68
2022/06/13 10:45:44;;;;;;;6.93;4.88;;;7.50;99.90;;;;;;4892340;29;20044;-63
2022/06/13 10:48:18;;;;;;;5.60;3.83;;;7.40;99.90;;;;;;4890835;29;20033;-62
2022/06/13 10:50:48;;;;;;;6.97;4.35;;;7.40;99.90;;;;;;4886871;29;20048;-60
2022/06/13 10:53:26;;;;;;;6.97;4.78;;;7.40;99.90;;;;;;4885126;29;20166;-61
2022/06/13 10:55:55;;;;;;;5.40;4.65;;;7.40;99.90;;;;;;4888766;29;20532;-60
2022/06/13 10:58:34;;;;;;;6.07;4.10;;;7.30;99.90;;;;;;4888116;28;20107;-61
2022/06/13 11:01:15;;;;;;;9.75;7.57;;;7.20;99.90;;;;;;4975847;28;20030;-59
2022/06/13 11:04:04;;;;;;;16.90;11.90;;;7.10;99.90;;;;;;4974285;28;20053;-59
2022/06/13 11:06:56;;;;;;;10.00;4.80;;;7.00;99.90;;;;;;4977430;28;20050;-63
2022/06/13 11:09:45;;;;;;;7.03;4.60;;;7.00;99.90;;;;;;4974677;28;20033;-66
2022/06/13 11:12:30;;;;;;;4.65;3.95;;;6.90;99.90;;;;;;4973386;28;20058;-66
2022/06/13 11:24:03;;;;;;;6.03;4.72;;;6.90;99.90;;;;;;4975221;28;20141;-66
2022/06/13 11:29:31;;;;;;;9.25;4.95;;;6.90;99.90;;;;;;4921059;29;20166;-60
2022/06/13 11:32:01;;;;;;;7.78;4.60;;;6.80;99.90;;;;;;4921172;29;20040;-66
2022/06/13 11:34:38;;;;;;;7.30;5.32;;;6.80;99.90;;;;;;4905107;29;20536;-59
2022/06/13 11:37:12;;;;;;;6.70;4.25;;;6.70;99.90;;;;;;4920947;29;20656;-60
2022/06/13 11:39:43;;;;;;;7.13;5.10;;;6.60;99.90;;;;;;4922535;29;20051;-60
2022/06/13 11:42:24;;;;;;;5.93;4.57;;;6.50;99.90;;;;;;4924284;29;20020;-63
2022/06/13 11:45:05;;;;;;;5.88;4.60;;;6.60;99.90;;;;;;4921029;29;20091;-64
2022/06/13 11:47:50;;;;;;;6.25;4.68;;;6.50;99.90;;;;;;4923429;29;20078;-61
2022/06/13 11:50:27;;;;;;;7.15;5.63;;;6.40;99.90;;;;;;4924072;29;20829;-64
2022/06/13 11:55:56;;;;;;;7.55;4.68;;;6.30;99.90;;;;;;4925050;29;20050;-62
2022/06/13 11:58:30;;;;;;;6.85;4.65;;;6.30;99.90;;;;;;4922581;29;20114;-60
2022/06/13 12:01:23;;;;;;;6.93;4.85;;;6.20;99.90;;;;;;4925630;29;20060;-62
2022/06/13 12:04:07;;;;;;;9.63;5.22;;;6.20;99.90;;;;;;4921820;29;20066;-64
2022/06/13 12:06:44;;;;;;;7.65;5.85;;;6.20;99.90;;;;;;4949115;28;20137;-63
2022/06/13 12:09:17;;;;;;;8.40;6.07;;;6.10;99.90;;;;;;4981427;28;20035;-68
2022/06/13 12:11:45;;;;;;;;;;;6.10;99.90;;;;;;4980544;28;20038;-61
2022/06/13 12:14:13;;;;;;;13.43;7.03;;;6.30;99.90;;;;;;4976935;28;20386;-63
2022/06/13 12:16:53;;;;;;;8.95;6.45;;;6.50;99.90;;;;;;4980882;28;20739;-63
2022/06/13 12:19:46;;;;;;;7.80;5.45;;;6.70;99.90;;;;;;4981749;28;20558;-61
2022/06/13 12:22:20;;;;;;;8.00;5.82;;;6.80;99.90;;;;;;4978104;28;20037;-62
2022/06/13 12:24:56;;;;;;;11.05;6.53;;;6.80;99.90;;;;;;4978537;28;20034;-64
2022/06/13 12:27:35;;;;;;;8.20;5.65;;;6.80;99.90;;;;;;4977097;28;20463;-62
2022/06/13 12:30:11;;;;;;;7.35;5.13;;;6.90;99.90;;;;;;4980965;28;20046;-68
2022/06/13 12:33:11;;;;;;;8.70;6.03;;;6.90;99.90;;;;;;4962711;28;20442;-62
2022/06/13 12:35:40;;;;;;;5.95;5.03;;;6.70;99.90;;;;;;4978704;28;20022;-62
2022/06/13 12:38:22;;;;;;;8.75;5.07;;;6.70;99.90;;;;;;4980219;28;20373;-63
2022/06/13 12:41:10;;;;;;;7.70;5.50;;;6.70;99.90;;;;;;4979726;28;20070;-62
2022/06/13 12:43:49;;;;;;;6.15;4.72;;;6.70;99.90;;;;;;4976497;28;20026;-68
2022/06/13 12:46:57;;;;;;;6.78;4.45;;;6.70;99.90;;;;;;4981555;28;20033;-69
2022/06/13 12:49:42;;;;;;;7.95;5.03;;;6.50;99.90;;;;;;4900782;29;20044;-62
2022/06/13 12:52:53;;;;;;;5.75;4.85;;;6.50;99.90;;;;;;4900004;29;20088;-69
2022/06/13 12:55:53;;;;;;;8.07;5.45;;;6.30;99.90;;;;;;4838462;29;20042;-63
2022/06/13 12:58:51;;;;;;;10.00;5.82;;;6.20;99.90;;;;;;4806485;29;20048;-61
2022/06/13 13:01:22;;;;;;;7.57;5.50;;;6.20;99.90;;;;;;4804511;29;20145;-64
2022/06/13 13:04:34;;;;;;;9.13;5.43;;;6.30;99.90;;;;;;4805481;29;20655;-65
2022/06/13 13:07:08;;;;;;;7.03;4.97;;;6.30;99.90;;;;;;4804264;29;20051;-63
2022/06/13 13:09:59;;;;;;;5.63;4.82;;;6.30;99.90;;;;;;4810384;29;20101;-69
2022/06/13 13:12:54;;;;;;;6.28;4.70;;;6.30;99.90;;;;;;4806578;29;20053;-63
2022/06/13 13:15:41;;;;;;;6.57;4.30;;;6.30;99.90;;;;;;4803111;29;20051;-61
2022/06/13 13:18:33;;;;;;;9.75;5.18;;;6.20;99.90;;;;;;4805890;29;20051;-62
2022/06/13 13:21:26;;;;;;;7.93;5.10;;;6.20;99.90;;;;;;4809054;29;20064;-63
2022/06/13 13:24:22;;;;;;;7.57;5.10;;;6.20;99.90;;;;;;4743724;29;20048;-68
2022/06/13 13:27:04;;;;;;;9.45;5.28;;;6.40;99.90;;;;;;4789876;29;20026;-68
2022/06/13 13:29:58;;;;;;;7.18;4.63;;;6.40;99.90;;;;;;4790845;29;20059;-69
2022/06/13 13:32:39;;;;;;;8.10;4.90;;;6.40;99.90;;;;;;4827288;29;20546;-64
2022/06/13 13:35:24;;;;;;;8.82;5.30;;;6.30;99.90;;;;;;4851315;29;20044;-65
2022/06/13 13:38:20;;;;;;;6.80;4.43;;;6.20;99.90;;;;;;4903708;29;20536;-62
2022/06/13 13:40:55;;;;;;;6.35;4.85;;;6.10;99.90;;;;;;4904227;29;20032;-67
2022/06/13 13:43:38;;;;;;;8.05;5.30;;;6.00;99.90;;;;;;4900859;29;20028;-63
2022/06/13 13:46:18;;;;;;;6.05;3.58;;;5.80;99.90;;;;;;4901556;29;20130;-63
2022/06/13 13:48:54;;;;;;;5.57;4.18;;;5.90;99.90;;;;;;4901418;29;20033;-61
2022/06/13 13:51:41;;;;;;;6.25;4.63;;;6.00;99.90;;;;;;4904826;29;20042;-62
2022/06/13 13:54:17;;;;;;;7.82;4.82;;;5.80;99.90;;;;;;4887818;29;20040;-63
2022/06/13 13:56:47;;;;;;;6.97;5.00;;;5.70;99.90;;;;;;4900972;29;20036;-61
2022/06/13 13:59:22;;;;;;;6.40;5.10;;;5.60;99.90;;;;;;4903677;29;20086;-63
2022/06/13 14:02:07;;;;;;;6.03;4.80;;;5.50;99.90;;;;;;4967430;28;20178;-61
2022/06/13 14:05:07;;;;;;;10.30;4.70;;;5.50;99.90;;;;;;4984276;28;20458;-61
2022/06/13 14:07:55;;;;;;;6.75;5.32;;;5.40;99.90;;;;;;4979755;28;20027;-64
2022/06/13 14:10:26;;;;;;;7.80;4.93;;;5.40;99.90;;;;;;4983052;28;20038;-61